sensor_id;sensor_type;location;lat;lon;timestamp;P1;P2;P0
80692;PMS5003;70055;39.436;-77.514;2023-06-22T00:30:29;4;4;
80692;PMS5003;70055;39.436;-77.514;2023-06-22T00:32:57;3;3;
80692;PMS5003;70055;39.436;-77.514;2023-06-22T00:35:25;3;3;
80692;PMS5003;70055;39.436;-77.514;2023-06-22T00:37:55;3;3;
80692;PMS5003;70055;39.436;-77.514;2023-06-22T00:40:24;4;4;
80692;PMS5003;70055;39.436;-77.514;2023-06-22T00:42:53;2;2;
80692;PMS5003;70055;39.436;-77.514;2023-06-22T00:45:21;3;2;
80692;PMS5003;70055;39.436;-77.514;2023-06-22T00:47:49;3;3;
80692;PMS5003;70055;39.436;-77.514;2023-06-22T00:50:19;4;4;
80692;PMS5003;70055;39.436;-77.514;2023-06-22T00:52:50;2;2;
80692;PMS5003;70055;39.436;-77.514;2023-06-22T00:55:20;4;3;
80692;PMS5003;70055;39.436;-77.514;2023-06-22T00:57:49;2;2;
80692;PMS5003;70055;39.436;-77.514;2023-06-22T01:00:17;3;3;
80692;PMS5003;70055;39.436;-77.514;2023-06-22T01:02:45;2;2;
80692;PMS5003;70055;39.436;-77.514;2023-06-22T01:05:14;3;3;
80692;PMS5003;70055;39.436;-77.514;2023-06-22T01:07:45;3;3;
80692;PMS5003;70055;39.436;-77.514;2023-06-22T01:10:24;3;3;
80692;PMS5003;70055;39.436;-77.514;2023-06-22T01:13:01;4;4;
80692;PMS5003;70055;39.436;-77.514;2023-06-22T01:15:36;2;2;
80692;PMS5003;70055;39.436;-77.514;2023-06-22T01:18:11;3;2;
80692;PMS5003;70055;39.436;-77.514;2023-06-22T01:20:42;2;2;
80692;PMS5003;70055;39.436;-77.514;2023-06-22T01:23:15;2;2;
80692;PMS5003;70055;39.436;-77.514;2023-06-22T01:25:54;1;1;
80692;PMS5003;70055;39.436;-77.514;2023-06-22T01:28:35;1;1;
80692;PMS5003;70055;39.436;-77.514;2023-06-22T02:14:21;2;2;
80692;PMS5003;70055;39.436;-77.514;2023-06-22T02:16:50;1;1;
80692;PMS5003;70055;39.436;-77.514;2023-06-22T02:19:22;1;1;
80692;PMS5003;70055;39.436;-77.514;2023-06-22T02:21:51;1;1;
80692;PMS5003;70055;39.436;-77.514;2023-06-22T02:24:18;2;2;
80692;PMS5003;70055;39.436;-77.514;2023-06-22T02:26:46;2;2;
80692;PMS5003;70055;39.436;-77.514;2023-06-22T02:29:15;1;1;
80692;PMS5003;70055;39.436;-77.514;2023-06-22T02:31:43;2;2;
80692;PMS5003;70055;39.436;-77.514;2023-06-22T02:34:11;2;2;
80692;PMS5003;70055;39.436;-77.514;2023-06-22T02:36:41;1;1;
80692;PMS5003;70055;39.436;-77.514;2023-06-22T02:39:09;2;2;
80692;PMS5003;70055;39.436;-77.514;2023-06-22T02:41:38;3;3;
80692;PMS5003;70055;39.436;-77.514;2023-06-22T02:44:06;1;1;
80692;PMS5003;70055;39.436;-77.514;2023-06-22T02:46:34;1;1;
80692;PMS5003;70055;39.436;-77.514;2023-06-22T02:49:03;2;2;
80692;PMS5003;70055;39.436;-77.514;2023-06-22T02:51:32;1;1;
80692;PMS5003;70055;39.436;-77.514;2023-06-22T02:54:01;1;1;
80692;PMS5003;70055;39.436;-77.514;2023-06-22T02:56:30;1;1;
80692;PMS5003;70055;39.436;-77.514;2023-06-22T02:58:58;0;0;
80692;PMS5003;70055;39.436;-77.514;2023-06-22T03:01:26;2;2;
80692;PMS5003;70055;39.436;-77.514;2023-06-22T03:03:54;1;1;
80692;PMS5003;70055;39.436;-77.514;2023-06-22T03:06:22;1;1;
80692;PMS5003;70055;39.436;-77.514;2023-06-22T03:08:50;2;2;
80692;PMS5003;70055;39.436;-77.514;2023-06-22T03:11:18;1;1;
80692;PMS5003;70055;39.436;-77.514;2023-06-22T03:13:47;1;1;
80692;PMS5003;70055;39.436;-77.514;2023-06-22T03:41:13;1;1;
80692;PMS5003;70055;39.436;-77.514;2023-06-22T03:43:40;2;2;
80692;PMS5003;70055;39.436;-77.514;2023-06-22T03:46:07;2;2;
80692;PMS5003;70055;39.436;-77.514;2023-06-22T03:48:35;3;3;
80692;PMS5003;70055;39.436;-77.514;2023-06-22T03:51:03;2;2;
80692;PMS5003;70055;39.436;-77.514;2023-06-22T03:53:32;3;3;
80692;PMS5003;70055;39.436;-77.514;2023-06-22T03:56:00;3;3;
80692;PMS5003;70055;39.436;-77.514;2023-06-22T03:58:28;2;2;
80692;PMS5003;70055;39.436;-77.514;2023-06-22T04:00:56;4;4;
80692;PMS5003;70055;39.436;-77.514;2023-06-22T04:03:24;2;2;
80692;PMS5003;70055;39.436;-77.514;2023-06-22T04:05:52;2;2;
80692;PMS5003;70055;39.436;-77.514;2023-06-22T04:08:20;2;2;
80692;PMS5003;70055;39.436;-77.514;2023-06-22T04:10:48;5;5;
80692;PMS5003;70055;39.436;-77.514;2023-06-22T04:13:16;2;2;
80692;PMS5003;70055;39.436;-77.514;2023-06-22T04:15:45;4;3;
80692;PMS5003;70055;39.436;-77.514;2023-06-22T04:18:13;1;1;
80692;PMS5003;70055;39.436;-77.514;2023-06-22T04:20:41;2;2;
80692;PMS5003;70055;39.436;-77.514;2023-06-22T04:23:09;2;2;
80692;PMS5003;70055;39.436;-77.514;2023-06-22T04:25:37;4;4;
80692;PMS5003;70055;39.436;-77.514;2023-06-22T04:28:05;3;3;
80692;PMS5003;70055;39.436;-77.514;2023-06-22T04:30:33;3;3;
80692;PMS5003;70055;39.436;-77.514;2023-06-22T04:33:03;3;3;
80692;PMS5003;70055;39.436;-77.514;2023-06-22T04:35:31;2;2;
80692;PMS5003;70055;39.436;-77.514;2023-06-22T04:37:59;3;3;
80692;PMS5003;70055;39.436;-77.514;2023-06-22T04:40:27;2;2;
80692;PMS5003;70055;39.436;-77.514;2023-06-22T04:51:57;2;2;
80692;PMS5003;70055;39.436;-77.514;2023-06-22T04:54:26;3;3;
80692;PMS5003;70055;39.436;-77.514;2023-06-22T04:56:54;3;3;
80692;PMS5003;70055;39.436;-77.514;2023-06-22T04:59:23;3;3;
80692;PMS5003;70055;39.436;-77.514;2023-06-22T05:01:52;3;3;
80692;PMS5003;70055;39.436;-77.514;2023-06-22T05:04:21;3;3;
80692;PMS5003;70055;39.436;-77.514;2023-06-22T05:06:49;2;2;
80692;PMS5003;70055;39.436;-77.514;2023-06-22T05:09:17;3;3;
80692;PMS5003;70055;39.436;-77.514;2023-06-22T05:11:46;4;3;
80692;PMS5003;70055;39.436;-77.514;2023-06-22T05:14:14;3;3;
80692;PMS5003;70055;39.436;-77.514;2023-06-22T05:16:43;5;5;
80692;PMS5003;70055;39.436;-77.514;2023-06-22T05:19:12;2;2;
80692;PMS5003;70055;39.436;-77.514;2023-06-22T05:21:40;3;3;
80692;PMS5003;70055;39.436;-77.514;2023-06-22T05:24:08;4;4;
80692;PMS5003;70055;39.436;-77.514;2023-06-22T05:26:36;3;3;
80692;PMS5003;70055;39.436;-77.514;2023-06-22T05:29:04;3;3;
80692;PMS5003;70055;39.436;-77.514;2023-06-22T05:31:32;3;3;
80692;PMS5003;70055;39.436;-77.514;2023-06-22T05:34:00;3;2;
80692;PMS5003;70055;39.436;-77.514;2023-06-22T05:36:28;5;4;
80692;PMS5003;70055;39.436;-77.514;2023-06-22T05:38:56;4;4;
80692;PMS5003;70055;39.436;-77.514;2023-06-22T05:41:24;3;3;
80692;PMS5003;70055;39.436;-77.514;2023-06-22T05:43:53;3;3;
80692;PMS5003;70055;39.436;-77.514;2023-06-22T05:46:21;3;3;
80692;PMS5003;70055;39.436;-77.514;2023-06-22T05:48:50;3;3;
80692;PMS5003;70055;39.436;-77.514;2023-06-22T05:51:18;3;3;
80692;PMS5003;70055;39.436;-77.514;2023-06-22T06:11:55;2;2;
80692;PMS5003;70055;39.436;-77.514;2023-06-22T06:14:22;3;3;
80692;PMS5003;70055;39.436;-77.514;2023-06-22T06:16:51;3;3;
80692;PMS5003;70055;39.436;-77.514;2023-06-22T06:19:19;3;3;
80692;PMS5003;70055;39.436;-77.514;2023-06-22T06:21:47;3;3;
80692;PMS5003;70055;39.436;-77.514;2023-06-22T06:24:15;2;2;
80692;PMS5003;70055;39.436;-77.514;2023-06-22T06:26:43;3;3;
80692;PMS5003;70055;39.436;-77.514;2023-06-22T06:29:11;3;2;
80692;PMS5003;70055;39.436;-77.514;2023-06-22T06:31:39;3;3;
80692;PMS5003;70055;39.436;-77.514;2023-06-22T06:34:07;3;3;
80692;PMS5003;70055;39.436;-77.514;2023-06-22T06:36:35;1;1;
80692;PMS5003;70055;39.436;-77.514;2023-06-22T06:39:04;3;3;
80692;PMS5003;70055;39.436;-77.514;2023-06-22T06:41:32;2;2;
80692;PMS5003;70055;39.436;-77.514;2023-06-22T06:44:00;4;3;
80692;PMS5003;70055;39.436;-77.514;2023-06-22T06:46:28;3;3;
80692;PMS5003;70055;39.436;-77.514;2023-06-22T06:48:56;3;3;
80692;PMS5003;70055;39.436;-77.514;2023-06-22T06:51:24;3;3;
80692;PMS5003;70055;39.436;-77.514;2023-06-22T06:53:52;3;3;
80692;PMS5003;70055;39.436;-77.514;2023-06-22T06:56:20;3;3;
80692;PMS5003;70055;39.436;-77.514;2023-06-22T06:58:49;4;4;
80692;PMS5003;70055;39.436;-77.514;2023-06-22T07:01:17;4;2;
80692;PMS5003;70055;39.436;-77.514;2023-06-22T07:03:45;3;3;
80692;PMS5003;70055;39.436;-77.514;2023-06-22T07:06:13;2;2;
80692;PMS5003;70055;39.436;-77.514;2023-06-22T07:08:42;3;3;
80692;PMS5003;70055;39.436;-77.514;2023-06-22T07:33:29;3;3;
80692;PMS5003;70055;39.436;-77.514;2023-06-22T07:35:56;2;2;
80692;PMS5003;70055;39.436;-77.514;2023-06-22T07:38:23;2;2;
80692;PMS5003;70055;39.436;-77.514;2023-06-22T07:40:51;2;2;
80692;PMS5003;70055;39.436;-77.514;2023-06-22T07:43:19;2;2;
80692;PMS5003;70055;39.436;-77.514;2023-06-22T07:45:49;2;2;
80692;PMS5003;70055;39.436;-77.514;2023-06-22T07:48:19;1;1;
80692;PMS5003;70055;39.436;-77.514;2023-06-22T07:50:47;2;1;
80692;PMS5003;70055;39.436;-77.514;2023-06-22T07:53:15;1;1;
80692;PMS5003;70055;39.436;-77.514;2023-06-22T07:55:43;2;2;
80692;PMS5003;70055;39.436;-77.514;2023-06-22T07:58:11;2;2;
80692;PMS5003;70055;39.436;-77.514;2023-06-22T08:00:39;2;2;
80692;PMS5003;70055;39.436;-77.514;2023-06-22T08:03:08;3;3;
80692;PMS5003;70055;39.436;-77.514;2023-06-22T08:05:36;2;2;
80692;PMS5003;70055;39.436;-77.514;2023-06-22T08:08:04;1;1;
80692;PMS5003;70055;39.436;-77.514;2023-06-22T08:10:32;3;3;
80692;PMS5003;70055;39.436;-77.514;2023-06-22T08:13:00;2;2;
80692;PMS5003;70055;39.436;-77.514;2023-06-22T08:15:28;2;2;
80692;PMS5003;70055;39.436;-77.514;2023-06-22T08:17:56;2;2;
80692;PMS5003;70055;39.436;-77.514;2023-06-22T08:20:24;2;2;
80692;PMS5003;70055;39.436;-77.514;2023-06-22T08:22:53;3;2;
80692;PMS5003;70055;39.436;-77.514;2023-06-22T08:25:22;3;3;
80692;PMS5003;70055;39.436;-77.514;2023-06-22T08:27:50;3;3;
80692;PMS5003;70055;39.436;-77.514;2023-06-22T08:30:18;3;3;
80692;PMS5003;70055;39.436;-77.514;2023-06-22T08:32:47;4;4;
80692;PMS5003;70055;39.436;-77.514;2023-06-22T08:53:22;2;2;
80692;PMS5003;70055;39.436;-77.514;2023-06-22T08:55:49;2;2;
80692;PMS5003;70055;39.436;-77.514;2023-06-22T08:58:16;2;2;
80692;PMS5003;70055;39.436;-77.514;2023-06-22T09:00:45;4;4;
80692;PMS5003;70055;39.436;-77.514;2023-06-22T09:03:13;3;3;
80692;PMS5003;70055;39.436;-77.514;2023-06-22T09:05:41;2;2;
80692;PMS5003;70055;39.436;-77.514;2023-06-22T09:08:10;3;3;
80692;PMS5003;70055;39.436;-77.514;2023-06-22T09:10:38;4;4;
80692;PMS5003;70055;39.436;-77.514;2023-06-22T09:13:06;4;4;
80692;PMS5003;70055;39.436;-77.514;2023-06-22T09:15:35;5;5;
80692;PMS5003;70055;39.436;-77.514;2023-06-22T09:18:03;4;4;
80692;PMS5003;70055;39.436;-77.514;2023-06-22T09:20:31;4;4;
80692;PMS5003;70055;39.436;-77.514;2023-06-22T09:22:59;5;5;
80692;PMS5003;70055;39.436;-77.514;2023-06-22T09:25:28;5;5;
80692;PMS5003;70055;39.436;-77.514;2023-06-22T09:27:56;5;5;
80692;PMS5003;70055;39.436;-77.514;2023-06-22T09:30:24;5;5;
80692;PMS5003;70055;39.436;-77.514;2023-06-22T09:32:52;6;6;
80692;PMS5003;70055;39.436;-77.514;2023-06-22T09:35:20;5;5;
80692;PMS5003;70055;39.436;-77.514;2023-06-22T09:37:48;5;5;
80692;PMS5003;70055;39.436;-77.514;2023-06-22T09:40:16;5;5;
80692;PMS5003;70055;39.436;-77.514;2023-06-22T09:42:44;4;4;
80692;PMS5003;70055;39.436;-77.514;2023-06-22T09:45:12;5;5;
80692;PMS5003;70055;39.436;-77.514;2023-06-22T09:47:40;4;4;
80692;PMS5003;70055;39.436;-77.514;2023-06-22T09:50:09;4;4;
80692;PMS5003;70055;39.436;-77.514;2023-06-22T09:52:37;2;2;
80692;PMS5003;70055;39.436;-77.514;2023-06-22T10:04:12;3;3;
80692;PMS5003;70055;39.436;-77.514;2023-06-22T10:06:39;3;3;
80692;PMS5003;70055;39.436;-77.514;2023-06-22T10:09:08;3;3;
80692;PMS5003;70055;39.436;-77.514;2023-06-22T10:11:35;4;4;
80692;PMS5003;70055;39.436;-77.514;2023-06-22T10:14:04;3;3;
80692;PMS5003;70055;39.436;-77.514;2023-06-22T10:16:32;4;4;
80692;PMS5003;70055;39.436;-77.514;2023-06-22T10:19:00;5;5;
80692;PMS5003;70055;39.436;-77.514;2023-06-22T10:21:28;3;3;
80692;PMS5003;70055;39.436;-77.514;2023-06-22T10:23:56;2;2;
80692;PMS5003;70055;39.436;-77.514;2023-06-22T10:26:24;2;2;
80692;PMS5003;70055;39.436;-77.514;2023-06-22T10:28:53;1;1;
80692;PMS5003;70055;39.436;-77.514;2023-06-22T10:31:21;2;2;
80692;PMS5003;70055;39.436;-77.514;2023-06-22T10:33:49;3;3;
80692;PMS5003;70055;39.436;-77.514;2023-06-22T10:36:19;3;3;
80692;PMS5003;70055;39.436;-77.514;2023-06-22T10:38:47;2;2;
80692;PMS5003;70055;39.436;-77.514;2023-06-22T10:41:16;2;2;
80692;PMS5003;70055;39.436;-77.514;2023-06-22T10:43:44;4;4;
80692;PMS5003;70055;39.436;-77.514;2023-06-22T10:46:12;3;3;
80692;PMS5003;70055;39.436;-77.514;2023-06-22T10:48:40;3;3;
80692;PMS5003;70055;39.436;-77.514;2023-06-22T10:51:09;3;3;
80692;PMS5003;70055;39.436;-77.514;2023-06-22T10:53:37;5;4;
80692;PMS5003;70055;39.436;-77.514;2023-06-22T10:56:05;3;3;
80692;PMS5003;70055;39.436;-77.514;2023-06-22T10:58:34;3;3;
80692;PMS5003;70055;39.436;-77.514;2023-06-22T11:01:02;4;4;
80692;PMS5003;70055;39.436;-77.514;2023-06-22T11:03:30;4;4;
80692;PMS5003;70055;39.436;-77.514;2023-06-22T11:19:33;4;4;
80692;PMS5003;70055;39.436;-77.514;2023-06-22T11:22:01;4;4;
80692;PMS5003;70055;39.436;-77.514;2023-06-22T11:24:29;3;3;
80692;PMS5003;70055;39.436;-77.514;2023-06-22T11:26:57;4;4;
80692;PMS5003;70055;39.436;-77.514;2023-06-22T11:29:26;2;2;
80692;PMS5003;70055;39.436;-77.514;2023-06-22T11:31:54;3;3;
80692;PMS5003;70055;39.436;-77.514;2023-06-22T11:34:22;5;5;
80692;PMS5003;70055;39.436;-77.514;2023-06-22T11:36:51;4;4;
80692;PMS5003;70055;39.436;-77.514;2023-06-22T11:39:19;2;2;
80692;PMS5003;70055;39.436;-77.514;2023-06-22T11:41:47;3;3;
80692;PMS5003;70055;39.436;-77.514;2023-06-22T11:44:15;2;2;
80692;PMS5003;70055;39.436;-77.514;2023-06-22T11:46:43;3;3;
80692;PMS5003;70055;39.436;-77.514;2023-06-22T11:49:11;3;3;
80692;PMS5003;70055;39.436;-77.514;2023-06-22T11:51:39;4;3;
80692;PMS5003;70055;39.436;-77.514;2023-06-22T11:54:07;2;2;
80692;PMS5003;70055;39.436;-77.514;2023-06-22T11:56:35;3;3;
80692;PMS5003;70055;39.436;-77.514;2023-06-22T11:59:03;3;2;
80692;PMS5003;70055;39.436;-77.514;2023-06-22T12:01:31;3;3;
80692;PMS5003;70055;39.436;-77.514;2023-06-22T12:03:59;3;3;
80692;PMS5003;70055;39.436;-77.514;2023-06-22T12:06:27;3;3;
80692;PMS5003;70055;39.436;-77.514;2023-06-22T12:08:56;3;3;
80692;PMS5003;70055;39.436;-77.514;2023-06-22T12:11:23;4;4;
80692;PMS5003;70055;39.436;-77.514;2023-06-22T12:13:51;4;4;
80692;PMS5003;70055;39.436;-77.514;2023-06-22T12:16:20;3;3;
80692;PMS5003;70055;39.436;-77.514;2023-06-22T12:18:48;3;3;
80692;PMS5003;70055;39.436;-77.514;2023-06-22T12:39:25;4;4;
80692;PMS5003;70055;39.436;-77.514;2023-06-22T12:41:53;2;2;
80692;PMS5003;70055;39.436;-77.514;2023-06-22T12:44:22;3;3;
80692;PMS5003;70055;39.436;-77.514;2023-06-22T12:46:51;2;2;
80692;PMS5003;70055;39.436;-77.514;2023-06-22T12:49:19;3;3;
80692;PMS5003;70055;39.436;-77.514;2023-06-22T12:51:48;3;3;
80692;PMS5003;70055;39.436;-77.514;2023-06-22T12:54:16;2;2;
80692;PMS5003;70055;39.436;-77.514;2023-06-22T12:56:44;4;3;
80692;PMS5003;70055;39.436;-77.514;2023-06-22T12:59:12;6;5;
80692;PMS5003;70055;39.436;-77.514;2023-06-22T13:01:40;5;5;
80692;PMS5003;70055;39.436;-77.514;2023-06-22T13:04:08;3;3;
80692;PMS5003;70055;39.436;-77.514;2023-06-22T13:06:37;4;4;
80692;PMS5003;70055;39.436;-77.514;2023-06-22T13:09:05;4;4;
80692;PMS5003;70055;39.436;-77.514;2023-06-22T13:11:33;4;4;
80692;PMS5003;70055;39.436;-77.514;2023-06-22T13:14:02;4;4;
80692;PMS5003;70055;39.436;-77.514;2023-06-22T13:16:30;3;3;
80692;PMS5003;70055;39.436;-77.514;2023-06-22T13:18:58;4;4;
80692;PMS5003;70055;39.436;-77.514;2023-06-22T13:21:26;4;4;
80692;PMS5003;70055;39.436;-77.514;2023-06-22T13:23:54;2;2;
80692;PMS5003;70055;39.436;-77.514;2023-06-22T13:26:24;3;3;
80692;PMS5003;70055;39.436;-77.514;2023-06-22T13:28:52;2;2;
80692;PMS5003;70055;39.436;-77.514;2023-06-22T13:31:19;2;2;
80692;PMS5003;70055;39.436;-77.514;2023-06-22T13:33:48;3;3;
80692;PMS5003;70055;39.436;-77.514;2023-06-22T13:36:16;2;2;
80692;PMS5003;70055;39.436;-77.514;2023-06-22T13:38:45;3;3;
80692;PMS5003;70055;39.436;-77.514;2023-06-22T13:41:13;2;2;
80692;PMS5003;70055;39.436;-77.514;2023-06-22T13:43:41;2;1;
80692;PMS5003;70055;39.436;-77.514;2023-06-22T13:46:09;3;3;
80692;PMS5003;70055;39.436;-77.514;2023-06-22T13:48:37;4;4;
80692;PMS5003;70055;39.436;-77.514;2023-06-22T13:51:06;4;4;
80692;PMS5003;70055;39.436;-77.514;2023-06-22T13:53:34;3;3;
80692;PMS5003;70055;39.436;-77.514;2023-06-22T13:56:03;3;3;
80692;PMS5003;70055;39.436;-77.514;2023-06-22T13:58:31;2;2;
80692;PMS5003;70055;39.436;-77.514;2023-06-22T14:00:59;3;3;
80692;PMS5003;70055;39.436;-77.514;2023-06-22T14:03:27;5;4;
80692;PMS5003;70055;39.436;-77.514;2023-06-22T14:05:55;1;1;
80692;PMS5003;70055;39.436;-77.514;2023-06-22T14:08:23;3;3;
80692;PMS5003;70055;39.436;-77.514;2023-06-22T14:10:52;3;3;
80692;PMS5003;70055;39.436;-77.514;2023-06-22T14:13:20;3;3;
80692;PMS5003;70055;39.436;-77.514;2023-06-22T14:15:48;2;2;
80692;PMS5003;70055;39.436;-77.514;2023-06-22T14:18:16;2;2;
80692;PMS5003;70055;39.436;-77.514;2023-06-22T14:20:44;3;3;
80692;PMS5003;70055;39.436;-77.514;2023-06-22T14:23:13;3;3;
80692;PMS5003;70055;39.436;-77.514;2023-06-22T14:25:41;2;2;
80692;PMS5003;70055;39.436;-77.514;2023-06-22T14:28:10;3;3;
80692;PMS5003;70055;39.436;-77.514;2023-06-22T14:30:38;3;3;
80692;PMS5003;70055;39.436;-77.514;2023-06-22T14:33:06;1;1;
80692;PMS5003;70055;39.436;-77.514;2023-06-22T14:35:34;2;2;
80692;PMS5003;70055;39.436;-77.514;2023-06-22T14:38:02;3;3;
80692;PMS5003;70055;39.436;-77.514;2023-06-22T14:40:31;2;2;
80692;PMS5003;70055;39.436;-77.514;2023-06-22T15:20:24;3;3;
80692;PMS5003;70055;39.436;-77.514;2023-06-22T15:22:51;4;3;
80692;PMS5003;70055;39.436;-77.514;2023-06-22T15:25:18;4;4;
80692;PMS5003;70055;39.436;-77.514;2023-06-22T15:27:46;2;2;
80692;PMS5003;70055;39.436;-77.514;2023-06-22T15:30:15;4;4;
80692;PMS5003;70055;39.436;-77.514;2023-06-22T15:32:43;3;3;
80692;PMS5003;70055;39.436;-77.514;2023-06-22T15:35:12;2;2;
80692;PMS5003;70055;39.436;-77.514;2023-06-22T15:37:39;3;3;
80692;PMS5003;70055;39.436;-77.514;2023-06-22T15:40:08;2;2;
80692;PMS5003;70055;39.436;-77.514;2023-06-22T15:42:36;3;3;
80692;PMS5003;70055;39.436;-77.514;2023-06-22T15:45:05;2;2;
80692;PMS5003;70055;39.436;-77.514;2023-06-22T15:47:33;4;4;
80692;PMS5003;70055;39.436;-77.514;2023-06-22T15:50:02;3;3;
80692;PMS5003;70055;39.436;-77.514;2023-06-22T15:52:31;2;2;
80692;PMS5003;70055;39.436;-77.514;2023-06-22T15:54:59;4;4;
80692;PMS5003;70055;39.436;-77.514;2023-06-22T15:57:27;2;2;
80692;PMS5003;70055;39.436;-77.514;2023-06-22T15:59:55;4;4;
80692;PMS5003;70055;39.436;-77.514;2023-06-22T16:02:22;2;2;
80692;PMS5003;70055;39.436;-77.514;2023-06-22T16:04:51;3;3;
80692;PMS5003;70055;39.436;-77.514;2023-06-22T16:07:19;2;2;
80692;PMS5003;70055;39.436;-77.514;2023-06-22T16:09:47;3;3;
80692;PMS5003;70055;39.436;-77.514;2023-06-22T16:12:15;2;2;
80692;PMS5003;70055;39.436;-77.514;2023-06-22T16:14:44;2;2;
80692;PMS5003;70055;39.436;-77.514;2023-06-22T16:17:12;4;4;
80692;PMS5003;70055;39.436;-77.514;2023-06-22T16:19:40;3;3;
80692;PMS5003;70055;39.436;-77.514;2023-06-22T16:47:08;3;3;
80692;PMS5003;70055;39.436;-77.514;2023-06-22T16:49:35;4;4;
80692;PMS5003;70055;39.436;-77.514;2023-06-22T16:52:02;4;4;
80692;PMS5003;70055;39.436;-77.514;2023-06-22T16:54:32;3;3;
80692;PMS5003;70055;39.436;-77.514;2023-06-22T16:57:02;5;4;
80692;PMS5003;70055;39.436;-77.514;2023-06-22T16:59:31;4;4;
80692;PMS5003;70055;39.436;-77.514;2023-06-22T17:01:59;4;4;
80692;PMS5003;70055;39.436;-77.514;2023-06-22T17:04:29;3;3;
80692;PMS5003;70055;39.436;-77.514;2023-06-22T17:07:01;4;3;
80692;PMS5003;70055;39.436;-77.514;2023-06-22T17:09:35;6;6;
80692;PMS5003;70055;39.436;-77.514;2023-06-22T17:12:07;7;7;
80692;PMS5003;70055;39.436;-77.514;2023-06-22T17:14:37;6;6;
80692;PMS5003;70055;39.436;-77.514;2023-06-22T17:17:07;6;6;
80692;PMS5003;70055;39.436;-77.514;2023-06-22T17:19:35;8;8;
80692;PMS5003;70055;39.436;-77.514;2023-06-22T17:22:05;6;6;
80692;PMS5003;70055;39.436;-77.514;2023-06-22T17:24:33;7;7;
80692;PMS5003;70055;39.436;-77.514;2023-06-22T17:27:02;8;8;
80692;PMS5003;70055;39.436;-77.514;2023-06-22T17:29:31;5;5;
80692;PMS5003;70055;39.436;-77.514;2023-06-22T17:32:00;6;5;
80692;PMS5003;70055;39.436;-77.514;2023-06-22T17:34:29;5;5;
80692;PMS5003;70055;39.436;-77.514;2023-06-22T17:36:58;6;5;
80692;PMS5003;70055;39.436;-77.514;2023-06-22T17:39:28;4;4;
80692;PMS5003;70055;39.436;-77.514;2023-06-22T17:41:56;5;5;
80692;PMS5003;70055;39.436;-77.514;2023-06-22T17:44:24;5;5;
80692;PMS5003;70055;39.436;-77.514;2023-06-22T17:49:16;8;8;
80692;PMS5003;70055;39.436;-77.514;2023-06-22T17:51:45;4;4;
80692;PMS5003;70055;39.436;-77.514;2023-06-22T17:54:16;3;3;
80692;PMS5003;70055;39.436;-77.514;2023-06-22T17:56:47;3;3;
80692;PMS5003;70055;39.436;-77.514;2023-06-22T17:59:16;5;5;
80692;PMS5003;70055;39.436;-77.514;2023-06-22T18:01:45;5;5;
80692;PMS5003;70055;39.436;-77.514;2023-06-22T18:04:15;6;5;
80692;PMS5003;70055;39.436;-77.514;2023-06-22T18:06:45;6;6;
80692;PMS5003;70055;39.436;-77.514;2023-06-22T18:09:14;5;5;
80692;PMS5003;70055;39.436;-77.514;2023-06-22T18:11:44;6;6;
80692;PMS5003;70055;39.436;-77.514;2023-06-22T18:14:14;6;5;
80692;PMS5003;70055;39.436;-77.514;2023-06-22T18:16:44;4;4;
80692;PMS5003;70055;39.436;-77.514;2023-06-22T18:19:15;5;5;
80692;PMS5003;70055;39.436;-77.514;2023-06-22T18:21:45;5;5;
80692;PMS5003;70055;39.436;-77.514;2023-06-22T18:24:15;5;5;
80692;PMS5003;70055;39.436;-77.514;2023-06-22T18:26:45;5;5;
80692;PMS5003;70055;39.436;-77.514;2023-06-22T18:29:13;5;5;
80692;PMS5003;70055;39.436;-77.514;2023-06-22T18:31:41;6;6;
80692;PMS5003;70055;39.436;-77.514;2023-06-22T18:34:09;8;8;
80692;PMS5003;70055;39.436;-77.514;2023-06-22T18:36:39;10;9;
80692;PMS5003;70055;39.436;-77.514;2023-06-22T18:39:12;8;8;
80692;PMS5003;70055;39.436;-77.514;2023-06-22T18:41:42;8;8;
80692;PMS5003;70055;39.436;-77.514;2023-06-22T18:44:18;9;8;
80692;PMS5003;70055;39.436;-77.514;2023-06-22T18:46:49;8;8;
80692;PMS5003;70055;39.436;-77.514;2023-06-22T19:32:31;10;10;
80692;PMS5003;70055;39.436;-77.514;2023-06-22T19:35:00;11;11;
80692;PMS5003;70055;39.436;-77.514;2023-06-22T19:37:29;12;12;
80692;PMS5003;70055;39.436;-77.514;2023-06-22T19:39:56;17;17;
80692;PMS5003;70055;39.436;-77.514;2023-06-22T19:42:23;13;13;
80692;PMS5003;70055;39.436;-77.514;2023-06-22T19:44:51;16;15;
80692;PMS5003;70055;39.436;-77.514;2023-06-22T19:47:20;15;15;
80692;PMS5003;70055;39.436;-77.514;2023-06-22T19:49:47;14;13;
80692;PMS5003;70055;39.436;-77.514;2023-06-22T19:52:24;17;17;
80692;PMS5003;70055;39.436;-77.514;2023-06-22T19:54:59;21;21;
80692;PMS5003;70055;39.436;-77.514;2023-06-22T19:57:27;15;15;
80692;PMS5003;70055;39.436;-77.514;2023-06-22T20:00:00;16;15;
80692;PMS5003;70055;39.436;-77.514;2023-06-22T20:02:29;16;15;
80692;PMS5003;70055;39.436;-77.514;2023-06-22T20:04:57;15;15;
80692;PMS5003;70055;39.436;-77.514;2023-06-22T20:07:34;16;15;
80692;PMS5003;70055;39.436;-77.514;2023-06-22T20:10:18;15;15;
80692;PMS5003;70055;39.436;-77.514;2023-06-22T20:12:48;17;16;
80692;PMS5003;70055;39.436;-77.514;2023-06-22T20:15:19;17;15;
80692;PMS5003;70055;39.436;-77.514;2023-06-22T20:17:56;14;14;
80692;PMS5003;70055;39.436;-77.514;2023-06-22T20:20:29;16;15;
80692;PMS5003;70055;39.436;-77.514;2023-06-22T20:22:59;17;17;
80692;PMS5003;70055;39.436;-77.514;2023-06-22T20:25:29;13;13;
80692;PMS5003;70055;39.436;-77.514;2023-06-22T20:28:03;18;17;
80692;PMS5003;70055;39.436;-77.514;2023-06-22T20:30:34;15;15;
80692;PMS5003;70055;39.436;-77.514;2023-06-22T21:31:55;18;18;
80692;PMS5003;70055;39.436;-77.514;2023-06-22T21:34:22;17;17;
80692;PMS5003;70055;39.436;-77.514;2023-06-22T21:36:50;17;17;
80692;PMS5003;70055;39.436;-77.514;2023-06-22T21:39:17;20;19;
80692;PMS5003;70055;39.436;-77.514;2023-06-22T21:41:44;18;18;
80692;PMS5003;70055;39.436;-77.514;2023-06-22T21:44:11;19;19;
80692;PMS5003;70055;39.436;-77.514;2023-06-22T21:46:39;21;20;
80692;PMS5003;70055;39.436;-77.514;2023-06-22T21:49:07;18;18;
80692;PMS5003;70055;39.436;-77.514;2023-06-22T21:51:36;17;17;
80692;PMS5003;70055;39.436;-77.514;2023-06-22T21:54:04;18;18;
80692;PMS5003;70055;39.436;-77.514;2023-06-22T21:56:33;17;17;
80692;PMS5003;70055;39.436;-77.514;2023-06-22T21:59:02;19;17;
80692;PMS5003;70055;39.436;-77.514;2023-06-22T22:01:30;17;17;
80692;PMS5003;70055;39.436;-77.514;2023-06-22T22:03:58;18;18;
80692;PMS5003;70055;39.436;-77.514;2023-06-22T22:06:26;18;18;
80692;PMS5003;70055;39.436;-77.514;2023-06-22T22:08:54;20;20;
80692;PMS5003;70055;39.436;-77.514;2023-06-22T22:11:23;20;20;
80692;PMS5003;70055;39.436;-77.514;2023-06-22T22:13:51;18;17;
80692;PMS5003;70055;39.436;-77.514;2023-06-22T22:16:18;17;17;
80692;PMS5003;70055;39.436;-77.514;2023-06-22T22:18:48;18;16;
80692;PMS5003;70055;39.436;-77.514;2023-06-22T22:21:16;16;16;
80692;PMS5003;70055;39.436;-77.514;2023-06-22T22:23:44;19;19;
80692;PMS5003;70055;39.436;-77.514;2023-06-22T22:26:12;17;17;
80692;PMS5003;70055;39.436;-77.514;2023-06-22T22:28:39;19;18;
80692;PMS5003;70055;39.436;-77.514;2023-06-22T22:42:28;17;16;
80692;PMS5003;70055;39.436;-77.514;2023-06-22T22:44:55;13;13;
80692;PMS5003;70055;39.436;-77.514;2023-06-22T22:47:24;17;17;